F44

Athens Municipal Airport

Athens, Texas, USA
METAR KF44 151855Z AUTO 21006KT 10SM BKN120 23/12 A2967 RMK AO2
Observed Flight Rules
Feb-15 @ 18:55 UTC (19 minutes ago) Visual Flight Rules
Wind Visibility Clouds
210° at 6 knots 10 miles
  • Broken at 12,000' AGL
Temperatures Readings
Current 23°C / 73°F
Dewpoint 12°C / 54°F
Humidity 50%
Altimeter 29.67" Hg
Pressure 1004.72 hPa
Elevation 135
METAR KF44 151855Z AUTO 21006KT 10SM BKN120 23/12 A2967 RMK AO2
Observed Flight Rules
Feb-15 @ 18:55 UTC
(19 minutes ago)
VFR
Wind Visibility
210° at 6 knots 10 miles
Clouds
  • Broken at 12,000' AGL
Temperature Dewpoint
23°C / 73°F 12°C / 54°F
Humidity Altimeter Pressure
50% 29.67" Hg 1004.72 hPa